New Harbor, ME

43° 52' 34"N, 69° 29' 40"W, Elevation 65 ft.
Eastern Time

Hourly observations for the last 72 hours

Date Time Temperature (°F) Humi-
dity

(%)
Wind
(mph)
Pressure Rain (in) Sun
(W/m2)
ET
(in)
Air Dew 6 Hour 1 Hr 3 Hr 6 Hr Day
Alt
(in)
Sea
Level

(mb)
Max Min
19 09:00 17.6 15.4 91 NW 4 G 10 29.53 999.9 0.09 81 0.000
19 08:00 15.7 13.5 91 NW 5 G 12 29.52 999.7 0.09 21 0.000
19 07:00 17.0 14.8 36.4 16.9 91 NW 7 G 14 29.51 999.5 0.01 0.06 0.09 0 0.000
19 06:00 21.6 19.6 92 NW 7 G 13 29.54 1000.3 0.01 0.09 0 0.000
19 05:00 32.1 30.3 93 NW 6 G 10 29.53 1000.0 0.08 0 0.000
19 04:00 35.7 34.1 94 SSE 7 G 15 29.56 1000.9 0.05 0.08 0 0.000
19 03:00 34.8 33.3 94 SE 10 G 23 29.61 1002.7 0.02 0.08 0 0.000
19 02:00 33.6 32.1 94 SE 7 G 22 29.68 1005.2 0.03 0.06 0 0.000
19 01:00 32.5 30.7 32.5 19.5 93 SSE 9 G 18 29.75 1007.3 0.03 0.03 0.03 0.03 0 0.000
19 00:00 30.7 28.9 93 SE 6 G 18 29.83 1010.2 0.00 0 0.012
18 23:00 28.7 26.7 92 SSE 10 G 22 29.90 1012.6 0.00 0 0.012
18 22:00 26.4 24.1 91 SSE 5 G 9 29.95 1014.2 0.00 0 0.012
18 21:00 24.7 21.9 89 SE 3 G 8 30.03 1016.9 0.00 0 0.012
18 20:00 22.0 18.5 86 ESE 4 G 5 30.10 1019.3 0.00 0 0.012
18 19:00 19.5 14.6 19.5 13.8 81 S 4 G 7 30.16 1021.4 0.00 0 0.012
18 18:00 16.3 9.8 75 W 0 G 3 30.21 1023.1 0.00 0 0.012
18 17:00 16.3 8.9 72 Calm 30.25 1024.6 0.00 0 0.012
18 16:00 16.1 7.1 67 W 0 G 2 30.30 1026.0 0.00 14 0.012
18 15:00 15.6 5.6 64 NNW 0 G 2 30.31 1026.6 0.00 56 0.011
18 14:00 14.7 4.4 63 ENE 3 G 8 30.33 1027.1 0.00 134 0.009
18 13:00 14.1 3.8 14.1 3.7 63 NNE 4 G 9 30.35 1028.0 0.00 167 0.007
18 12:00 13.4 2.8 62 NNW 2 G 8 30.41 1029.7 0.00 343 0.004
18 11:00 11.2 1.7 65 NW 3 G 7 30.45 1031.2 0.00 311 0.002
18 10:00 7.6 -1.1 67 N 1 G 6 30.48 1032.3 0.00 116 0.001
18 09:00 5.4 -1.7 72 WNW 3 G 8 30.50 1033.0 0.00 53 0.000
18 08:00 4.1 -2.6 73 N 1 G 10 30.51 1033.1 0.00 40 0.000
18 07:00 4.0 -2.7 5.0 3.1 73 N 2 G 10 30.51 1033.1 0.00 5 0.000
18 06:00 3.6 -2.8 74 NW 2 G 6 30.52 1033.5 0.00 0 0.000
18 05:00 3.2 -3.8 72 N 3 G 6 30.51 1033.3 0.00 0 0.000
18 04:00 3.3 -3.7 72 NNW 5 G 15 30.51 1033.4 0.00 0 0.000
18 03:00 3.8 -3.5 71 N 7 G 13 30.51 1033.2 0.00 0 0.000
18 02:00 4.2 -4.0 68 NW 5 G 15 30.55 1034.5 0.00 0 0.000
18 01:00 4.8 -3.1 9.2 4.1 69 NNW 6 G 13 30.54 1034.3 0.00 0 0.000
18 00:00 4.4 -2.9 71 NNW 3 G 12 30.56 1035.0 0.00 0 0.026
17 23:00 4.7 -2.3 72 NW 4 G 11 30.56 1035.0 0.00 0 0.026
17 22:00 4.7 -2.6 71 WNW 3 G 10 30.54 1034.1 0.00 0 0.026
17 21:00 6.1 -2.5 67 N 2 G 9 30.52 1033.7 0.00 0 0.026
17 20:00 7.6 -1.7 65 NNW 2 G 13 30.57 1035.2 0.00 0 0.025
17 19:00 9.1 0.0 14.9 9.1 66 NW 7 G 14 30.54 1034.2 0.00 0 0.024
17 18:00 10.2 1.4 67 NNW 5 G 14 30.51 1033.2 0.00 0 0.023
17 17:00 11.6 2.4 66 WNW 7 G 15 30.48 1032.1 0.00 0 0.022
17 16:00 13.2 3.6 65 NW 6 G 13 30.43 1030.6 0.00 18 0.021
17 15:00 14.7 3.0 59 WNW 7 G 17 30.41 1029.8 0.00 70 0.019
17 14:00 14.5 3.8 62 NW 5 G 15 30.39 1029.3 0.00 135 0.017
17 13:00 12.9 2.3 13.6 6.2 62 NW 9 G 18 30.37 1028.5 0.00 274 0.013
17 12:00 11.9 2.4 65 NW 6 G 17 30.39 1029.3 0.00 438 0.009
17 11:00 9.6 0.2 65 N 10 G 17 30.41 1029.7 0.00 445 0.007
17 10:00 7.3 -0.1 71 NW 5 G 16 30.39 1029.2 0.00 35 0.006
17 09:00 6.3 -1.1 71 NW 9 G 24 30.36 1028.2 0.00 25 0.005
17 08:00 6.9 0.1 73 NW 6 G 18 30.34 1027.3 0.00 14 0.004
17 07:00 8.2 2.2 20.9 8.2 76 NNW 10 G 18 30.29 1025.8 0.00 0 0.004
17 06:00 10.7 5.5 79 NW 4 G 14 30.24 1024.0 0.00 0 0.004
17 05:00 12.2 6.1 76 NNW 6 G 13 30.17 1021.9 0.00 0 0.003
17 04:00 14.3 8.4 77 NW 6 G 17 30.13 1020.5 0.00 0 0.002
17 03:00 16.0 10.1 77 NW 7 G 18 30.09 1019.1 0.00 0 0.001
17 02:00 18.3 12.6 78 NW 8 G 17 30.05 1017.5 0.00 0 0.000
17 01:00 20.9 16.0 28.8 20.9 81 Calm 30.00 1016.0 0.00 0 0.000
17 00:00 21.8 17.2 82 Calm 29.95 1014.4 0.32 0 0.007
16 23:00 24.1 20.0 84 Calm 29.91 1013.0 0.32 0 0.007
16 22:00 25.6 22.0 86 Calm 29.87 1011.7 0.32 0 0.007
16 21:00 26.4 23.1 87 Calm 29.84 1010.7 0.32 0 0.007
16 20:00 27.8 25.0 89 Calm 29.82 1009.7 0.32 0 0.007
16 19:00 28.7 26.7 33.1 28.7 92 Calm 29.78 1008.6 0.04 0.32 0 0.007
16 18:00 29.0 27.2 93 Calm 29.75 1007.7 0.32 0 0.007
16 17:00 29.7 28.2 94 Calm 29.71 1006.1 0.32 0 0.007
16 16:00 30.6 29.1 94 Calm 29.66 1004.4 0.02 0.04 0.32 5 0.007
16 15:00 31.9 30.4 94 Calm 29.61 1002.7 0.02 0.30 19 0.006
16 14:00 32.4 30.9 94 N 4 G 14 29.57 1001.5 0.28 46 0.005
16 13:00 33.0 31.5 33.8 32.7 94 NE 7 G 20 29.58 1001.7 0.01 0.08 0.23 0.28 137 0.003
16 12:00 32.8 31.3 94 ENE 5 G 11 29.62 1003.1 0.03 0.27 76 0.002
16 11:00 33.1 31.6 94 NE 4 G 10 29.68 1005.1 0.04 0.24 42 0.001
16 10:00 33.6 32.1 94 E 2 G 9 29.74 1007.2 0.05 0.15 0.20 28 0.000

Data generated by WxSolution Version 1.9.1.5, Build 2018.05.20.